Terminal Aerodrome Forecast
Issued by NWS Tampa Bay Area, FL

Home | Current Version | Previous Version | Text Only | Print | Product List | Glossary Off
Versions: 1 2 3 4 5 6 7 8 9 10 11 12 13

000
FTUS42 KTBW 191100
TAFSRQ
TAF
KSRQ 191137Z 1912/2012 05005KT P6SM FEW150 BKN250
     FM191500 06006KT P6SM FEW150 BKN250
     FM192000 27006KT P6SM FEW150 BKN250
     FM192300 35004KT P6SM FEW150 BKN250
     FM200300 10004KT P6SM FEW150 BKN250=

USA.gov is the U.S. government's official web portal to all federal, state and local government web resources and services.